createdAt,value
2022-10-21T00:02:00.009Z,11.30
2022-10-21T00:04:28.223Z,9.30
2022-10-21T00:06:56.256Z,10.15
2022-10-21T00:09:24.274Z,10.85
2022-10-21T00:11:52.891Z,9.23
2022-10-21T00:14:20.806Z,11.55
2022-10-21T00:16:48.786Z,13.50
2022-10-21T00:19:16.853Z,12.38
2022-10-21T00:21:44.779Z,13.55
2022-10-21T00:24:12.971Z,10.73
2022-10-21T00:26:42.151Z,10.48
2022-10-21T00:29:10.128Z,9.68
2022-10-21T00:31:38.162Z,9.57
2022-10-21T00:34:06.165Z,8.07
2022-10-21T00:36:34.091Z,9.02
2022-10-21T00:39:02.479Z,8.45
2022-10-21T00:41:31.339Z,7.40
2022-10-21T00:44:07.046Z,11.77
2022-10-21T00:46:43.846Z,10.45
2022-10-21T00:49:38.287Z,10.50
2022-10-21T00:52:12.469Z,11.68
2022-10-21T00:54:42.091Z,11.55
2022-10-21T00:57:11.941Z,9.15
2022-10-21T00:59:44.651Z,11.27
2022-10-21T01:02:13.774Z,11.98
2022-10-21T01:04:42.813Z,9.43
2022-10-21T01:07:11.812Z,12.50
2022-10-21T01:09:40.174Z,9.38
2022-10-21T01:12:19.697Z,9.23
2022-10-21T01:15:00.890Z,8.23
2022-10-21T01:17:44.991Z,11.15
2022-10-21T01:20:20.699Z,8.32
2022-10-21T01:23:27.440Z,8.90
2022-10-21T01:26:16.884Z,11.15
2022-10-21T01:29:09.070Z,11.10
2022-10-21T01:32:09.468Z,9.43
2022-10-21T01:35:04.745Z,10.95
2022-10-21T01:38:36.716Z,8.50
2022-10-21T01:41:10.594Z,9.82
2022-10-21T01:44:11.828Z,10.10
2022-10-21T01:46:50.708Z,8.77
2022-10-21T01:49:41.093Z,9.90
2022-10-21T01:52:09.921Z,9.48
2022-10-21T01:54:44.708Z,13.10
2022-10-21T01:57:17.133Z,11.80
2022-10-21T01:59:47.462Z,11.17
2022-10-21T02:02:17.818Z,12.10
2022-10-21T02:04:47.210Z,14.07
2022-10-21T02:07:15.827Z,9.38
2022-10-21T02:09:44.521Z,12.43
2022-10-21T02:12:13.415Z,11.48
2022-10-21T02:14:51.814Z,12.55
2022-10-21T02:17:22.738Z,9.60
2022-10-21T02:19:51.186Z,13.63
2022-10-21T02:22:22.494Z,10.68
2022-10-21T02:24:53.441Z,8.85
2022-10-21T02:27:22.603Z,10.60
2022-10-21T02:29:54.994Z,7.82
2022-10-21T02:32:31.735Z,7.22
2022-10-21T02:35:03.481Z,7.65
2022-10-21T02:40:09.466Z,7.68
2022-10-21T02:42:43.591Z,9.20
2022-10-21T02:45:11.972Z,9.75
2022-10-21T02:47:41.566Z,9.85
2022-10-21T02:50:10.523Z,11.40
2022-10-21T02:52:39.072Z,8.52
2022-10-21T02:55:07.851Z,8.52
2022-10-21T02:57:36.686Z,9.25
2022-10-21T03:00:06.407Z,11.02
2022-10-21T03:02:34.524Z,10.30
2022-10-21T03:05:03.060Z,11.25
2022-10-21T03:07:31.746Z,9.35
2022-10-21T03:10:00.201Z,14.27
2022-10-21T03:12:28.348Z,9.68
2022-10-21T03:14:56.671Z,11.18
2022-10-21T03:17:25.427Z,11.75
2022-10-21T03:19:54.351Z,7.93
2022-10-21T03:22:22.879Z,10.60
2022-10-21T03:24:50.922Z,8.95
2022-10-21T03:27:19.450Z,10.23
2022-10-21T03:29:48.038Z,11.23
2022-10-21T03:32:15.938Z,10.23
2022-10-21T03:34:43.836Z,10.32
2022-10-21T03:37:12.240Z,13.65
2022-10-21T03:39:40.226Z,15.43
2022-10-21T03:42:08.329Z,11.38
2022-10-21T03:44:36.373Z,12.93
2022-10-21T03:47:04.867Z,12.48
2022-10-21T03:49:32.876Z,9.15
2022-10-21T03:52:01.304Z,12.85
2022-10-21T03:54:29.500Z,9.63
2022-10-21T03:56:58.159Z,7.95
2022-10-21T03:59:26.682Z,8.93
2022-10-21T04:01:54.844Z,8.55
2022-10-21T04:04:23.001Z,9.05
2022-10-21T04:06:50.969Z,8.27
2022-10-21T04:09:19.745Z,9.38
2022-10-21T04:11:48.546Z,7.28
2022-10-21T04:14:16.605Z,10.32
2022-10-21T04:16:46.136Z,9.50
2022-10-21T04:19:20.189Z,9.60
2022-10-21T04:21:48.223Z,10.40
2022-10-21T04:24:17.420Z,7.93
2022-10-21T04:26:45.749Z,7.53
2022-10-21T04:29:14.779Z,10.15
2022-10-21T04:31:42.664Z,8.35
2022-10-21T04:34:11.304Z,8.27
2022-10-21T04:36:39.829Z,7.45
2022-10-21T04:39:07.828Z,9.60
2022-10-21T04:41:36.493Z,8.77
2022-10-21T04:44:04.742Z,10.35
2022-10-21T04:46:32.984Z,7.93
2022-10-21T04:49:01.484Z,7.72
2022-10-21T04:51:29.442Z,7.82
2022-10-21T04:53:57.744Z,8.75
2022-10-21T04:56:25.917Z,8.15
2022-10-21T04:58:54.447Z,8.70
2022-10-21T05:01:22.625Z,11.50
2022-10-21T05:03:51.587Z,10.10
2022-10-21T05:06:19.528Z,9.48
2022-10-21T05:08:47.978Z,7.97
2022-10-21T05:11:16.284Z,7.80
2022-10-21T05:13:44.065Z,10.70
2022-10-21T05:16:12.478Z,11.02
2022-10-21T05:18:40.851Z,11.68
2022-10-21T05:21:09.400Z,12.98
2022-10-21T05:23:37.709Z,9.45
2022-10-21T05:26:06.001Z,11.52
2022-10-21T05:28:34.301Z,12.43
2022-10-21T05:31:02.429Z,31.85
2022-10-21T05:33:31.295Z,47.58
2022-10-21T05:36:01.974Z,45.83
2022-10-21T05:38:30.948Z,43.53
2022-10-21T05:40:59.448Z,49.10
2022-10-21T05:43:30.886Z,40.33
2022-10-21T05:45:58.833Z,34.42
2022-10-21T05:48:26.766Z,22.75
2022-10-21T05:50:56.461Z,22.10
2022-10-21T05:53:24.662Z,25.42
2022-10-21T05:56:00.706Z,18.23
2022-10-21T05:58:31.024Z,15.77
2022-10-21T06:01:00.645Z,14.13
2022-10-21T06:03:32.444Z,13.30
2022-10-21T06:06:03.270Z,19.70
2022-10-21T06:08:33.038Z,23.23
2022-10-21T06:11:08.853Z,17.17
2022-10-21T06:13:38.474Z,13.60
2022-10-21T06:16:08.527Z,7.93
2022-10-21T06:18:36.959Z,7.30
2022-10-21T06:21:05.565Z,8.25
2022-10-21T06:24:00.168Z,9.30
2022-10-21T06:26:30.937Z,6.72
2022-10-21T06:31:29.126Z,8.85
2022-10-21T06:33:57.085Z,9.98
2022-10-21T06:36:25.984Z,8.88
2022-10-21T06:38:55.047Z,6.13
2022-10-21T06:41:23.091Z,15.70
2022-10-21T06:43:50.956Z,23.73
2022-10-21T06:46:19.281Z,23.30
2022-10-21T06:48:47.198Z,28.05
2022-10-21T06:51:20.448Z,26.00
2022-10-21T06:53:53.246Z,28.63
2022-10-21T06:56:22.669Z,29.85
2022-10-21T06:58:51.676Z,26.85
2022-10-21T07:01:34.445Z,29.42
2022-10-21T07:04:10.811Z,24.05
2022-10-21T07:06:39.623Z,17.15
2022-10-21T07:09:08.939Z,14.48
2022-10-21T07:11:37.367Z,17.70
2022-10-21T07:14:05.948Z,14.30
2022-10-21T07:16:36.330Z,11.05
2022-10-21T07:19:05.611Z,13.05
2022-10-21T07:21:33.700Z,8.85
2022-10-21T07:24:02.114Z,8.07
2022-10-21T07:26:33.018Z,9.40
2022-10-21T07:29:02.331Z,9.13
2022-10-21T07:31:35.819Z,9.68
2022-10-21T07:34:06.212Z,9.57
2022-10-21T07:36:37.777Z,7.38
2022-10-21T07:39:11.528Z,7.85
2022-10-21T07:41:43.690Z,11.50
2022-10-21T07:44:12.014Z,10.20
2022-10-21T07:46:42.088Z,12.00
2022-10-21T07:49:11.560Z,8.23
2022-10-21T07:51:40.506Z,11.52
2022-10-21T07:54:09.150Z,6.78
2022-10-21T07:56:44.791Z,7.70
2022-10-21T07:59:13.939Z,6.95
2022-10-21T08:04:18.963Z,5.38
2022-10-21T08:06:48.936Z,7.05
2022-10-21T08:09:17.478Z,6.38
2022-10-21T08:11:46.132Z,8.07
2022-10-21T08:14:14.940Z,7.50
2022-10-21T08:16:42.937Z,7.25
2022-10-21T08:20:14.398Z,8.05
2022-10-21T08:22:42.727Z,6.10
2022-10-21T08:25:11.842Z,6.70
2022-10-21T08:28:06.494Z,6.85
2022-10-21T08:30:34.459Z,6.82
2022-10-21T08:33:02.928Z,6.75
2022-10-21T08:35:31.683Z,9.10
2022-10-21T08:38:00.471Z,10.05
2022-10-21T08:40:36.272Z,8.43
2022-10-21T08:43:28.950Z,9.60
2022-10-21T08:46:03.282Z,8.93
2022-10-21T08:48:37.913Z,12.68
2022-10-21T08:51:09.322Z,8.13
2022-10-21T08:53:41.623Z,8.35
2022-10-21T08:56:19.552Z,14.50
2022-10-21T08:58:51.106Z,7.60
2022-10-21T09:01:22.888Z,12.65
2022-10-21T09:03:55.712Z,7.83
2022-10-21T09:06:55.623Z,7.25
2022-10-21T09:09:34.891Z,12.65
2022-10-21T09:12:25.921Z,11.02
2022-10-21T09:15:47.498Z,7.80
2022-10-21T09:18:46.696Z,9.05
2022-10-21T09:22:22.600Z,8.27
2022-10-21T09:25:13.968Z,8.55
2022-10-21T09:27:57.505Z,9.50
2022-10-21T09:30:26.290Z,9.45
2022-10-21T09:33:00.270Z,7.70
2022-10-21T09:35:31.083Z,7.82
2022-10-21T09:38:33.426Z,7.47
2022-10-21T09:41:03.758Z,6.80
2022-10-21T09:43:32.014Z,9.43
2022-10-21T09:46:00.112Z,5.60
2022-10-21T09:49:08.253Z,8.77
2022-10-21T09:51:37.926Z,5.47
2022-10-21T09:54:12.106Z,7.00
2022-10-21T09:56:59.223Z,8.35
2022-10-21T09:59:32.911Z,6.22
2022-10-21T10:02:12.866Z,6.63
2022-10-21T10:04:41.455Z,7.93
2022-10-21T10:07:32.766Z,8.48
2022-10-21T10:10:01.161Z,7.95
2022-10-21T10:12:30.993Z,8.23
2022-10-21T10:15:26.884Z,13.50
2022-10-21T10:17:58.228Z,8.00
2022-10-21T10:20:27.674Z,7.70
2022-10-21T10:23:04.451Z,8.38
2022-10-21T10:25:40.596Z,8.43
2022-10-21T10:28:09.679Z,8.40
2022-10-21T10:30:43.727Z,7.72
2022-10-21T10:33:30.713Z,8.73
2022-10-21T10:36:03.336Z,8.77
2022-10-21T10:38:38.721Z,9.40
2022-10-21T10:41:09.967Z,8.68
2022-10-21T10:43:47.399Z,9.35
2022-10-21T10:46:36.776Z,9.77
2022-10-21T10:49:13.105Z,6.97
2022-10-21T10:51:42.684Z,8.98
2022-10-21T10:54:24.975Z,9.95
2022-10-21T10:57:03.622Z,9.30
2022-10-21T10:59:56.996Z,7.80
2022-10-21T11:02:27.915Z,7.68
2022-10-21T11:04:59.658Z,8.40
2022-10-21T11:07:53.069Z,6.97
2022-10-21T11:10:35.036Z,12.30
2022-10-21T11:13:10.184Z,10.35
2022-10-21T11:15:56.109Z,6.60
2022-10-21T11:18:49.863Z,11.25
2022-10-21T11:21:33.202Z,10.02
2022-10-21T11:24:33.414Z,11.55
2022-10-21T11:27:33.827Z,10.02
2022-10-21T11:30:06.395Z,10.02
2022-10-21T11:32:43.535Z,8.88
2022-10-21T11:35:34.990Z,10.50
2022-10-21T11:38:12.135Z,9.32
2022-10-21T11:40:41.531Z,11.35
2022-10-21T11:43:27.571Z,10.05
2022-10-21T11:46:16.657Z,14.13
2022-10-21T11:49:02.790Z,11.13
2022-10-21T11:52:02.726Z,10.55
2022-10-21T11:55:09.906Z,12.40
2022-10-21T11:58:02.577Z,7.18
2022-10-21T12:00:47.123Z,9.53
2022-10-21T12:03:26.986Z,9.65
2022-10-21T12:06:13.867Z,8.85
2022-10-21T12:08:47.182Z,8.60
2022-10-21T12:11:25.804Z,9.75
2022-10-21T12:14:00.890Z,8.65
2022-10-21T12:16:31.992Z,7.72
2022-10-21T12:19:05.790Z,10.93
2022-10-21T12:21:37.856Z,11.25
2022-10-21T12:24:28.102Z,9.50
2022-10-21T12:27:10.465Z,9.40
2022-10-21T12:29:45.010Z,9.60
2022-10-21T12:32:25.857Z,9.95
2022-10-21T12:34:55.087Z,10.07
2022-10-21T12:37:43.352Z,10.68
2022-10-21T12:40:17.460Z,10.65
2022-10-21T12:42:48.643Z,7.68
2022-10-21T12:45:27.902Z,9.68
2022-10-21T12:47:57.068Z,11.02
2022-10-21T12:50:30.004Z,10.90
2022-10-21T12:53:22.406Z,8.95
2022-10-21T12:56:01.719Z,7.90
2022-10-21T12:58:45.648Z,10.90
2022-10-21T13:01:37.547Z,8.10
2022-10-21T13:04:24.934Z,8.50
2022-10-21T13:06:52.823Z,7.93
2022-10-21T13:09:56.709Z,8.43
2022-10-21T13:12:24.527Z,8.10
2022-10-21T13:15:00.779Z,8.30
2022-10-21T13:17:33.027Z,8.65
2022-10-21T13:20:06.920Z,7.40
2022-10-21T13:22:41.860Z,6.55
2022-10-21T13:25:16.575Z,11.30
2022-10-21T13:27:52.012Z,7.53
2022-10-21T13:30:33.426Z,8.60
2022-10-21T13:33:07.125Z,7.63
2022-10-21T13:35:45.993Z,7.72
2022-10-21T13:38:30.193Z,8.63
2022-10-21T13:41:07.994Z,8.10
2022-10-21T13:43:48.476Z,7.88
2022-10-21T13:46:19.793Z,7.63
2022-10-21T13:48:48.956Z,8.75
2022-10-21T13:51:26.147Z,7.13
2022-10-21T13:54:01.209Z,8.85
2022-10-21T13:56:35.257Z,9.20
2022-10-21T13:59:05.357Z,8.65
2022-10-21T14:01:51.447Z,11.68
2022-10-21T14:04:22.399Z,11.13
2022-10-21T14:06:55.006Z,14.43
2022-10-21T14:09:27.445Z,12.50
2022-10-21T14:12:03.988Z,14.95
2022-10-21T14:14:33.758Z,21.73
2022-10-21T14:17:05.763Z,10.38
2022-10-21T14:19:38.828Z,11.27
2022-10-21T14:22:10.018Z,10.23
2022-10-21T14:24:53.369Z,10.70
2022-10-21T14:27:30.089Z,11.05
2022-10-21T14:30:01.533Z,9.82
2022-10-21T14:32:32.144Z,10.45
2022-10-21T14:35:27.718Z,12.30
2022-10-21T14:38:01.616Z,11.48
2022-10-21T14:40:41.648Z,12.80
2022-10-21T14:43:12.949Z,10.65
2022-10-21T14:45:49.961Z,13.68
2022-10-21T14:48:25.795Z,11.23
2022-10-21T14:51:01.727Z,10.57
2022-10-21T14:53:37.108Z,12.35
2022-10-21T14:56:14.003Z,17.02
2022-10-21T14:58:45.996Z,11.38
2022-10-21T15:01:22.574Z,11.93
2022-10-21T15:03:53.753Z,16.13
2022-10-21T15:06:37.108Z,18.75
2022-10-21T15:09:11.130Z,16.50
2022-10-21T15:11:47.772Z,15.23
2022-10-21T15:14:24.011Z,15.98
2022-10-21T15:16:54.561Z,16.88
2022-10-21T15:19:52.238Z,19.85
2022-10-21T15:22:30.314Z,18.42
2022-10-21T15:25:08.221Z,16.08
2022-10-21T15:27:44.416Z,20.25
2022-10-21T15:30:18.041Z,19.92
2022-10-21T15:32:47.957Z,18.60
2022-10-21T15:35:21.589Z,16.90
2022-10-21T15:37:51.159Z,20.30
2022-10-21T15:40:21.092Z,20.10
2022-10-21T15:42:50.537Z,22.08
2022-10-21T15:45:23.180Z,17.13
2022-10-21T15:47:52.973Z,18.48
2022-10-21T15:50:24.787Z,17.77
2022-10-21T15:52:53.209Z,17.52
2022-10-21T15:55:22.393Z,23.00
2022-10-21T15:57:50.582Z,22.55
2022-10-21T16:00:22.124Z,26.35
2022-10-21T16:02:52.009Z,18.70
2022-10-21T16:05:24.133Z,17.40
2022-10-21T16:07:52.995Z,22.53
2022-10-21T16:10:36.246Z,18.20
2022-10-21T16:13:04.931Z,18.98
2022-10-21T16:15:32.935Z,19.52
2022-10-21T16:18:01.336Z,25.60
2022-10-21T16:20:31.733Z,24.60
2022-10-21T16:23:03.091Z,24.70
2022-10-21T16:25:33.483Z,29.70
2022-10-21T16:28:01.723Z,29.45
2022-10-21T16:30:42.009Z,24.85
2022-10-21T16:33:11.399Z,25.92
2022-10-21T16:35:39.873Z,25.27
2022-10-21T16:38:07.778Z,33.33
2022-10-21T16:40:36.794Z,42.35
2022-10-21T16:43:05.371Z,41.72
2022-10-21T16:45:34.401Z,41.53
2022-10-21T16:48:04.895Z,39.40
2022-10-21T16:50:43.642Z,46.78
2022-10-21T16:53:15.659Z,44.33
2022-10-21T16:55:44.016Z,33.60
2022-10-21T16:58:12.336Z,27.92
2022-10-21T17:00:41.448Z,29.98
2022-10-21T17:03:12.132Z,29.90
2022-10-21T17:05:41.263Z,32.55
2022-10-21T17:08:09.938Z,32.78
2022-10-21T17:10:38.417Z,31.38
2022-10-21T17:13:07.272Z,30.83
2022-10-21T17:15:35.790Z,33.78
2022-10-21T17:18:03.837Z,33.80
2022-10-21T17:20:33.418Z,36.55
2022-10-21T17:23:02.454Z,34.22
2022-10-21T17:25:31.199Z,36.00
2022-10-21T17:27:59.927Z,35.00
2022-10-21T17:30:28.286Z,29.58
2022-10-21T17:32:56.276Z,26.35
2022-10-21T17:35:24.325Z,29.48
2022-10-21T17:37:53.999Z,29.60
2022-10-21T17:40:25.781Z,27.35
2022-10-21T17:42:54.545Z,32.72
2022-10-21T17:45:22.941Z,29.35
2022-10-21T17:47:52.663Z,30.50
2022-10-21T17:50:24.061Z,24.17
2022-10-21T17:52:56.346Z,24.83
2022-10-21T17:55:24.525Z,23.47
2022-10-21T17:57:53.087Z,25.92
2022-10-21T18:00:21.507Z,26.08
2022-10-21T18:02:49.503Z,21.77
2022-10-21T18:05:17.612Z,25.55
2022-10-21T18:07:45.983Z,25.58
2022-10-21T18:10:23.148Z,25.20
2022-10-21T18:12:51.532Z,25.05
2022-10-21T18:15:21.265Z,30.00
2022-10-21T18:17:49.837Z,25.00
2022-10-21T18:20:19.959Z,33.72
2022-10-21T18:22:48.708Z,25.83
2022-10-21T18:25:16.766Z,28.85
2022-10-21T18:30:17.740Z,34.92
2022-10-21T18:32:46.167Z,34.00
2022-10-21T18:35:16.040Z,33.30
2022-10-21T18:37:46.123Z,28.85
2022-10-21T18:40:16.511Z,30.77
2022-10-21T18:42:46.138Z,29.65
2022-10-21T18:45:14.443Z,29.30
2022-10-21T18:47:47.587Z,30.30
2022-10-21T18:50:16.032Z,30.20
2022-10-21T18:52:44.473Z,26.63
2022-10-21T18:55:13.004Z,31.98
2022-10-21T18:57:41.408Z,30.48
2022-10-21T19:00:10.409Z,35.67
2022-10-21T19:02:38.901Z,32.72
2022-10-21T19:05:07.394Z,32.15
2022-10-21T19:07:35.830Z,34.78
2022-10-21T19:10:04.960Z,152.02
2022-10-21T19:12:32.928Z,175.95
2022-10-21T19:15:01.226Z,107.13
2022-10-21T19:17:30.987Z,107.15
2022-10-21T19:20:00.875Z,37.83
2022-10-21T19:24:58.812Z,33.67
2022-10-21T19:27:27.209Z,35.63
2022-10-21T19:29:55.733Z,31.67
2022-10-21T19:32:24.254Z,32.92
2022-10-21T19:34:52.512Z,38.83
2022-10-21T19:37:20.933Z,37.58
2022-10-21T19:39:50.056Z,32.80
2022-10-21T19:42:18.105Z,35.80
2022-10-21T19:44:46.497Z,41.83
2022-10-21T19:47:14.986Z,38.50
2022-10-21T19:49:42.938Z,37.33
2022-10-21T19:52:11.522Z,33.95
2022-10-21T19:54:40.206Z,32.85
2022-10-21T19:57:08.278Z,38.53
2022-10-21T19:59:40.263Z,43.05
2022-10-21T20:02:12.154Z,44.08
2022-10-21T20:04:40.794Z,42.80
2022-10-21T20:07:08.939Z,44.97
2022-10-21T20:09:38.978Z,40.55
2022-10-21T20:12:13.377Z,46.25
2022-10-21T20:14:42.477Z,38.80
2022-10-21T20:17:12.345Z,35.75
2022-10-21T20:19:48.414Z,38.05
2022-10-21T20:22:17.817Z,33.13
2022-10-21T20:24:46.575Z,32.80
2022-10-21T20:27:15.137Z,31.83
2022-10-21T20:29:43.435Z,30.83
2022-10-21T20:32:11.952Z,36.65
2022-10-21T20:34:43.175Z,35.83
2022-10-21T20:37:11.059Z,31.30
2022-10-21T20:39:39.198Z,28.98
2022-10-21T20:42:07.487Z,27.42
2022-10-21T20:44:36.034Z,31.30
2022-10-21T20:47:05.923Z,28.30
2022-10-21T20:49:35.222Z,34.20
2022-10-21T20:52:03.506Z,40.25
2022-10-21T20:54:33.446Z,32.13
2022-10-21T20:57:01.373Z,30.33
2022-10-21T20:59:29.989Z,30.83
2022-10-21T21:01:58.432Z,31.30
2022-10-21T21:04:26.923Z,26.77
2022-10-21T21:06:55.346Z,36.03
2022-10-21T21:12:12.491Z,35.38
2022-10-21T21:14:41.132Z,34.35
2022-10-21T21:17:09.359Z,37.67
2022-10-21T21:19:39.851Z,34.83
2022-10-21T21:22:07.906Z,35.00
2022-10-21T21:24:36.339Z,36.42
2022-10-21T21:27:04.875Z,32.30
2022-10-21T21:29:33.209Z,27.95
2022-10-21T21:32:02.219Z,25.10
2022-10-21T21:34:30.804Z,25.40
2022-10-21T21:37:00.738Z,29.35
2022-10-21T21:39:28.642Z,33.83
2022-10-21T21:41:56.910Z,37.00
2022-10-21T21:44:24.982Z,36.38
2022-10-21T21:46:53.338Z,35.65
2022-10-21T21:49:21.990Z,33.88
2022-10-21T21:51:49.985Z,35.97
2022-10-21T21:54:18.397Z,36.15
2022-10-21T21:56:47.007Z,37.00
2022-10-21T21:59:15.292Z,35.78
2022-10-21T22:01:46.251Z,35.90
2022-10-21T22:04:15.320Z,40.13
2022-10-21T22:06:43.385Z,33.40
2022-10-21T22:09:12.368Z,32.45
2022-10-21T22:11:40.447Z,33.55
2022-10-21T22:14:09.007Z,37.10
2022-10-21T22:16:40.059Z,35.65
2022-10-21T22:19:08.214Z,29.92
2022-10-21T22:21:39.748Z,32.88
2022-10-21T22:24:07.942Z,30.30
2022-10-21T22:26:36.487Z,32.08
2022-10-21T22:29:05.092Z,30.58
2022-10-21T22:31:33.084Z,33.13
2022-10-21T22:34:01.552Z,33.15
2022-10-21T22:36:32.913Z,31.83
2022-10-21T22:39:05.017Z,34.30
2022-10-21T22:41:32.999Z,28.30
2022-10-21T22:44:01.016Z,29.17
2022-10-21T22:46:34.009Z,30.67
2022-10-21T22:49:04.924Z,29.02
2022-10-21T22:51:34.125Z,28.02
2022-10-21T22:54:02.553Z,28.85
2022-10-21T22:56:32.151Z,26.55
2022-10-21T22:59:00.500Z,27.08
2022-10-21T23:01:31.218Z,26.63
2022-10-21T23:04:04.432Z,24.92
2022-10-21T23:06:36.485Z,26.55
2022-10-21T23:09:05.964Z,27.05
2022-10-21T23:11:36.203Z,24.92
2022-10-21T23:14:08.823Z,26.27
2022-10-21T23:16:40.978Z,28.60
2022-10-21T23:21:42.381Z,30.63
2022-10-21T23:24:11.423Z,28.38
2022-10-21T23:26:39.952Z,28.48
2022-10-21T23:29:08.461Z,28.27
2022-10-21T23:31:36.508Z,29.10
2022-10-21T23:34:06.099Z,33.88
2022-10-21T23:36:35.662Z,34.97
2022-10-21T23:39:04.590Z,30.73
2022-10-21T23:41:32.919Z,28.70
2022-10-21T23:44:00.858Z,27.73
2022-10-21T23:46:28.931Z,28.98
2022-10-21T23:48:56.862Z,26.00
2022-10-21T23:51:25.425Z,32.47
2022-10-21T23:53:53.912Z,27.48
2022-10-21T23:56:22.171Z,28.92
2022-10-21T23:58:50.709Z,27.67
